createdAt,value
2018-07-21T00:02:44.800Z,21.60
2018-07-21T00:12:52.900Z,21.60
2018-07-21T00:17:57.517Z,21.60
2018-07-21T00:23:01.966Z,21.50
2018-07-21T00:28:06.291Z,21.50
2018-07-21T00:33:10.503Z,21.40
2018-07-21T00:38:14.876Z,21.30
2018-07-21T00:43:18.968Z,21.40
2018-07-21T00:48:23.343Z,21.30
2018-07-21T00:53:31.420Z,21.30
2018-07-21T01:03:39.933Z,21.20
2018-07-21T01:08:44.356Z,21.20
2018-07-21T01:13:48.448Z,21.20
2018-07-21T01:18:52.499Z,21.00
2018-07-21T01:23:56.940Z,21.00
2018-07-21T01:29:00.948Z,20.90
2018-07-21T01:34:05.417Z,20.90
2018-07-21T01:39:11.323Z,20.90
2018-07-21T01:44:15.764Z,20.80
2018-07-21T01:49:20.108Z,20.90
2018-07-21T01:54:24.404Z,20.90
2018-07-21T01:59:28.724Z,20.90
2018-07-21T02:04:32.780Z,20.90
2018-07-21T02:09:37.897Z,20.90
2018-07-21T02:14:42.031Z,20.90
2018-07-21T02:19:46.404Z,20.80
2018-07-21T02:24:50.904Z,20.80
2018-07-21T02:29:55.329Z,20.80
2018-07-21T02:34:59.765Z,20.80
2018-07-21T02:40:04.207Z,20.70
2018-07-21T02:45:08.252Z,20.50
2018-07-21T02:50:12.389Z,20.40
2018-07-21T02:55:16.743Z,20.30
2018-07-21T03:00:21.195Z,20.30
2018-07-21T03:05:25.544Z,20.30
2018-07-21T03:10:30.012Z,20.30
2018-07-21T03:15:34.968Z,20.40
2018-07-21T03:20:39.309Z,20.40
2018-07-21T03:25:43.849Z,20.30
2018-07-21T03:30:48.193Z,20.00
2018-07-21T03:35:52.615Z,19.90
2018-07-21T03:40:58.070Z,19.80
2018-07-21T03:46:02.498Z,19.80
2018-07-21T03:51:06.591Z,19.90
2018-07-21T03:56:11.060Z,19.90
2018-07-21T04:01:15.463Z,19.70
2018-07-21T04:06:19.548Z,19.70
2018-07-21T04:11:23.907Z,19.70
2018-07-21T04:16:28.015Z,19.80
2018-07-21T04:21:32.286Z,19.60
2018-07-21T04:26:37.515Z,19.80
2018-07-21T04:31:41.924Z,20.00
2018-07-21T04:36:46.480Z,20.00
2018-07-21T04:41:50.799Z,20.20
2018-07-21T04:46:55.261Z,20.90
2018-07-21T04:51:59.312Z,21.80
2018-07-21T04:57:03.835Z,22.30
2018-07-21T05:02:08.221Z,22.60
2018-07-21T05:07:12.659Z,22.70
2018-07-21T05:12:16.782Z,23.30
2018-07-21T05:17:20.912Z,23.70
2018-07-21T05:22:25.880Z,24.10
2018-07-21T05:27:31.781Z,24.00
2018-07-21T05:32:36.183Z,24.20
2018-07-21T05:37:40.204Z,24.50
2018-07-21T05:42:44.289Z,25.00
2018-07-21T05:47:48.737Z,25.50
2018-07-21T05:52:53.026Z,25.60
2018-07-21T05:57:57.556Z,25.40
2018-07-21T06:03:01.717Z,25.20
2018-07-21T06:08:06.212Z,25.00
2018-07-21T06:13:10.545Z,25.20
2018-07-21T06:18:14.668Z,25.20
2018-07-21T06:23:18.731Z,24.90
2018-07-21T06:28:23.727Z,25.10
2018-07-21T06:33:28.093Z,24.60
2018-07-21T06:38:32.538Z,24.70
2018-07-21T06:43:36.874Z,24.90
2018-07-21T06:48:41.326Z,25.00
2018-07-21T06:53:45.478Z,24.80
2018-07-21T06:58:49.880Z,25.20
2018-07-21T07:03:54.203Z,24.70
2018-07-21T07:08:58.212Z,24.90
2018-07-21T07:14:02.556Z,25.20
2018-07-21T07:19:06.683Z,25.50
2018-07-21T07:24:11.159Z,25.80
2018-07-21T07:29:15.618Z,25.90
2018-07-21T07:34:19.667Z,26.30
2018-07-21T07:39:23.776Z,25.90
2018-07-21T07:44:27.844Z,25.80
2018-07-21T07:49:32.258Z,26.20
2018-07-21T07:54:36.647Z,26.30
2018-07-21T07:59:40.686Z,26.60
2018-07-21T08:04:44.744Z,26.40
2018-07-21T08:09:49.227Z,26.80
2018-07-21T08:14:53.291Z,27.10
2018-07-21T08:19:57.707Z,26.80
2018-07-21T08:25:01.840Z,26.80
2018-07-21T08:30:07.785Z,27.30
2018-07-21T08:35:11.859Z,27.10
2018-07-21T08:40:15.908Z,27.00
2018-07-21T08:45:20.084Z,27.40
2018-07-21T08:50:24.400Z,27.50
2018-07-21T08:55:28.433Z,27.70
2018-07-21T09:05:37.255Z,27.90
2018-07-21T09:10:41.284Z,27.50
2018-07-21T09:15:45.596Z,27.40
2018-07-21T09:20:49.683Z,27.10
2018-07-21T09:25:54.336Z,27.40
2018-07-21T09:30:58.424Z,27.30
2018-07-21T09:36:02.812Z,27.10
2018-07-21T09:41:07.289Z,27.40
2018-07-21T09:46:11.302Z,27.20
2018-07-21T09:51:15.702Z,27.30
2018-07-21T09:56:19.735Z,27.40
2018-07-21T10:01:23.772Z,27.40
2018-07-21T10:06:27.791Z,27.70
2018-07-21T10:11:31.892Z,27.60
2018-07-21T10:16:36.351Z,27.30
2018-07-21T10:21:41.821Z,27.10
2018-07-21T10:26:51.576Z,27.20
2018-07-21T10:31:55.614Z,27.10
2018-07-21T10:36:59.936Z,26.90
2018-07-21T10:42:04.337Z,27.10
2018-07-21T10:47:08.636Z,26.80
2018-07-21T10:52:13.468Z,26.70
2018-07-21T10:57:17.519Z,26.60
2018-07-21T11:02:22.245Z,26.90
2018-07-21T11:07:26.273Z,27.00
2018-07-21T11:12:30.400Z,27.00
2018-07-21T11:17:34.828Z,27.10
2018-07-21T11:22:39.157Z,26.90
2018-07-21T11:27:43.691Z,26.90
2018-07-21T11:32:49.438Z,26.80
2018-07-21T11:37:53.789Z,26.70
2018-07-21T11:42:57.945Z,26.50
2018-07-21T11:48:02.563Z,26.40
2018-07-21T11:53:06.588Z,26.40
2018-07-21T11:58:10.675Z,26.50
2018-07-21T12:03:15.848Z,26.50
2018-07-21T12:08:19.933Z,26.50
2018-07-21T12:13:24.638Z,26.20
2018-07-21T12:18:28.620Z,26.20
2018-07-21T12:23:32.694Z,26.20
2018-07-21T12:28:36.751Z,26.30
2018-07-21T12:33:41.238Z,26.40
2018-07-21T12:38:45.242Z,26.10
2018-07-21T12:43:49.303Z,26.20
2018-07-21T12:48:53.662Z,26.20
2018-07-21T12:53:57.717Z,26.30
2018-07-21T12:59:02.068Z,26.20
2018-07-21T13:04:06.428Z,26.30
2018-07-21T13:09:11.865Z,26.30
2018-07-21T13:14:15.948Z,26.10
2018-07-21T13:19:20.370Z,26.20
2018-07-21T13:24:24.510Z,26.30
2018-07-21T13:29:28.943Z,26.30
2018-07-21T13:34:33.004Z,26.20
2018-07-21T13:39:37.517Z,26.20
2018-07-21T13:44:41.566Z,26.10
2018-07-21T13:49:45.643Z,25.90
2018-07-21T13:54:50.227Z,25.90
2018-07-21T13:59:54.409Z,25.90
2018-07-21T14:04:58.425Z,25.90
2018-07-21T14:10:03.069Z,25.70
2018-07-21T14:15:07.174Z,25.40
2018-07-21T14:20:11.557Z,25.60
2018-07-21T14:25:15.684Z,25.60
2018-07-21T14:30:19.708Z,25.70
2018-07-21T14:35:23.806Z,25.60
2018-07-21T14:40:27.889Z,25.60
2018-07-21T14:45:31.978Z,25.50
2018-07-21T14:50:36.092Z,25.50
2018-07-21T14:55:40.179Z,25.30
2018-07-21T15:00:44.367Z,25.30
2018-07-21T15:05:49.089Z,25.20
2018-07-21T15:10:53.208Z,25.20
2018-07-21T15:15:57.412Z,25.10
2018-07-21T15:21:01.552Z,25.20
2018-07-21T15:26:05.900Z,24.90
2018-07-21T15:31:10.057Z,25.00
2018-07-21T15:41:18.256Z,24.80
2018-07-21T15:46:22.307Z,24.70
2018-07-21T15:51:26.641Z,24.70
2018-07-21T15:56:30.768Z,24.60
2018-07-21T16:01:34.867Z,24.60
2018-07-21T16:06:38.908Z,24.60
2018-07-21T16:11:43.349Z,24.60
2018-07-21T16:16:47.444Z,24.40
2018-07-21T16:21:51.504Z,24.50
2018-07-21T16:26:55.561Z,24.40
2018-07-21T16:31:59.602Z,24.30
2018-07-21T16:37:03.705Z,24.30
2018-07-21T16:45:43.379Z,24.10
2018-07-21T16:50:48.140Z,24.10
2018-07-21T16:55:52.501Z,24.20
2018-07-21T17:00:56.815Z,23.90
2018-07-21T17:11:04.762Z,23.90
2018-07-21T17:16:09.250Z,24.00
2018-07-21T17:21:13.878Z,23.60
2018-07-21T17:26:18.570Z,23.50
2018-07-21T17:31:23.100Z,23.80
2018-07-21T17:36:28.372Z,23.70
2018-07-21T17:41:32.611Z,23.80
2018-07-21T17:46:36.755Z,23.70
2018-07-21T17:51:42.930Z,23.50
2018-07-21T17:56:48.012Z,23.40
2018-07-21T18:01:52.462Z,23.20
2018-07-21T18:06:56.583Z,23.10
2018-07-21T18:12:00.767Z,23.10
2018-07-21T18:17:05.347Z,23.00
2018-07-21T18:22:09.564Z,22.90
2018-07-21T18:27:14.588Z,23.10
2018-07-21T18:32:19.961Z,23.00
2018-07-21T18:37:24.176Z,22.80
2018-07-21T18:42:28.437Z,23.10
2018-07-21T18:47:32.597Z,23.10
2018-07-21T18:52:36.941Z,23.10
2018-07-21T18:57:41.566Z,23.20
2018-07-21T19:02:46.101Z,23.10
2018-07-21T19:07:50.936Z,23.00
2018-07-21T19:12:55.078Z,22.90
2018-07-21T19:17:59.582Z,22.90
2018-07-21T19:23:03.836Z,22.90
2018-07-21T19:28:08.605Z,22.50
2018-07-21T19:33:13.377Z,22.60
2018-07-21T19:38:17.763Z,22.40
2018-07-21T19:43:21.846Z,22.30
2018-07-21T19:48:26.000Z,22.30
2018-07-21T19:53:30.550Z,22.40
2018-07-21T19:58:35.498Z,22.30
2018-07-21T20:03:40.322Z,22.10
2018-07-21T20:08:44.957Z,22.20
2018-07-21T20:13:49.512Z,22.10
2018-07-21T20:18:53.675Z,22.00
2018-07-21T20:23:58.526Z,22.10
2018-07-21T20:29:03.160Z,22.00
2018-07-21T20:34:07.850Z,21.90
2018-07-21T20:39:12.480Z,22.00
2018-07-21T20:44:17.626Z,22.00
2018-07-21T20:51:40.331Z,22.20
2018-07-21T20:56:44.683Z,22.30
2018-07-21T21:01:49.221Z,22.20
2018-07-21T21:06:53.405Z,22.10
2018-07-21T21:11:57.868Z,21.90
2018-07-21T21:17:02.350Z,21.80
2018-07-21T21:22:06.757Z,21.80
2018-07-21T21:27:11.880Z,21.70
2018-07-21T21:32:16.420Z,21.60
2018-07-21T21:37:20.940Z,21.50
2018-07-21T21:42:25.283Z,21.50
2018-07-21T21:47:30.075Z,21.40
2018-07-21T21:52:34.241Z,21.30
2018-07-21T21:57:38.365Z,21.30
2018-07-21T22:02:43.631Z,21.30
2018-07-21T22:07:48.085Z,21.30
2018-07-21T22:12:52.314Z,21.30
2018-07-21T22:17:56.454Z,21.20
2018-07-21T22:23:00.584Z,21.20
2018-07-21T22:28:04.812Z,21.10
2018-07-21T22:33:08.973Z,21.10
2018-07-21T22:38:13.439Z,21.10
2018-07-21T22:43:17.973Z,21.00
2018-07-21T22:48:22.177Z,21.00
2018-07-21T22:53:28.179Z,21.00
2018-07-21T22:58:32.295Z,20.90
2018-07-21T23:03:36.390Z,20.90
2018-07-21T23:08:43.194Z,20.90
2018-07-21T23:13:47.570Z,21.00
2018-07-21T23:18:52.259Z,21.00
2018-07-21T23:23:56.351Z,20.90
2018-07-21T23:29:00.417Z,20.90
2018-07-21T23:34:04.654Z,20.90
2018-07-21T23:39:10.463Z,20.80
2018-07-21T23:44:14.850Z,20.70
2018-07-21T23:49:19.268Z,20.70
2018-07-21T23:54:24.953Z,20.80
2018-07-21T23:59:29.138Z,20.70
